Sandgate, Vermont
Current Conditions -  °F | °C
As of 4:54 PM on Wednesday 22 Oct 2014 (Local Time) from KDDH Reporting Station
Overcast Overcast  
Wind Chill: 45°   Ceiling: 1100
Heat Index: 49°   Visibility: 10mi
Dew Point: 46°   Wind: 9mph
Humidity: 90%   Direction: 340°NNW
Pressure: 29.98"   Gusts: NA
Location:  43.1041°N, 73.154°W
Report Text: KDDH 222054Z AUTO 34008KT 10SM BKN011 OVC028 09/08 A2998 RMK AO2 RAB10E31 SLP156 P0001 60001 T00940078 58009
Loading
Personal Weather Stations






























Interactive Weather Map
Tropical Storm Tracking
New forecast layout! Learn more

10-Day Weather Forecast

Advertisements
Track Severe Weather on mobile